createdAt,value
2016-09-03T00:00:30.761Z,1015.87
2016-09-03T00:01:30.518Z,1015.85
2016-09-03T00:02:30.672Z,1015.88
2016-09-03T00:03:30.427Z,1015.93
2016-09-03T00:04:30.389Z,1015.97
2016-09-03T00:05:30.339Z,1015.97
2016-09-03T00:06:30.303Z,1016.05
2016-09-03T00:07:30.249Z,1016.04
2016-09-03T00:08:30.212Z,1016.04
2016-09-03T00:09:30.158Z,1016
2016-09-03T00:10:30.116Z,1015.92
2016-09-03T00:11:30.070Z,1015.9
2016-09-03T00:12:30.029Z,1015.9
2016-09-03T00:13:29.980Z,1015.85
2016-09-03T00:14:29.938Z,1015.87
2016-09-03T00:15:29.894Z,1015.82
2016-09-03T00:16:29.847Z,1015.8
2016-09-03T00:17:29.799Z,1015.8
2016-09-03T00:18:29.759Z,1015.78
2016-09-03T00:19:29.707Z,1015.75
2016-09-03T00:20:29.661Z,1015.68
2016-09-03T00:21:29.618Z,1015.67
2016-09-03T00:22:29.578Z,1015.69
2016-09-03T00:23:29.560Z,1015.72
2016-09-03T00:24:29.488Z,1015.74
2016-09-03T00:25:29.500Z,1015.78
2016-09-03T00:26:29.390Z,1015.8
2016-09-03T00:27:29.346Z,1015.84
2016-09-03T00:28:29.302Z,1015.88
2016-09-03T00:29:29.254Z,1015.94
2016-09-03T00:30:29.208Z,1015.97
2016-09-03T00:31:29.171Z,1015.92
2016-09-03T00:32:29.137Z,1015.93
2016-09-03T00:33:29.285Z,1015.95
2016-09-03T00:34:29.238Z,1015.94
2016-09-03T00:35:28.987Z,1015.98
2016-09-03T00:36:28.940Z,1015.97
2016-09-03T00:37:28.899Z,1015.99
2016-09-03T00:38:28.850Z,1015.98
2016-09-03T00:39:28.807Z,1016.02
2016-09-03T00:40:28.759Z,1016.05
2016-09-03T00:41:28.718Z,1016.01
2016-09-03T00:42:28.666Z,1015.96
2016-09-03T00:43:29.028Z,1015.91
2016-09-03T00:44:28.586Z,1015.89
2016-09-03T00:45:28.530Z,1015.88
2016-09-03T00:46:28.697Z,1015.89
2016-09-03T00:47:28.459Z,1015.89
2016-09-03T00:48:28.445Z,1015.83
2016-09-03T00:49:28.556Z,1015.76
2016-09-03T00:50:28.311Z,1015.75
2016-09-03T00:51:28.260Z,1015.72
2016-09-03T00:52:28.216Z,1015.71
2016-09-03T00:53:28.172Z,1015.68
2016-09-03T00:54:28.127Z,1015.73
2016-09-03T00:55:28.081Z,1015.74
2016-09-03T00:56:28.037Z,1015.72
2016-09-03T00:57:28.189Z,1015.7
2016-09-03T00:58:28.377Z,1015.66
2016-09-03T00:59:27.897Z,1015.66
2016-09-03T01:00:27.856Z,1015.66
2016-09-03T01:01:27.815Z,1015.69
2016-09-03T01:02:27.775Z,1015.69
2016-09-03T01:03:27.732Z,1015.72
2016-09-03T01:04:27.676Z,1015.7
2016-09-03T01:05:27.630Z,1015.69
2016-09-03T01:06:27.582Z,1015.69
2016-09-03T01:07:27.537Z,1015.67
2016-09-03T01:08:27.898Z,1015.6
2016-09-03T01:09:27.448Z,1015.6
2016-09-03T01:10:27.398Z,1015.54
2016-09-03T01:11:27.638Z,1015.52
2016-09-03T01:12:27.511Z,1015.53
2016-09-03T01:13:27.270Z,1015.55
2016-09-03T01:14:27.217Z,1015.56
2016-09-03T01:15:27.182Z,1015.51
2016-09-03T01:16:27.138Z,1015.51
2016-09-03T01:17:27.081Z,1015.47
2016-09-03T01:18:27.036Z,1015.49
2016-09-03T01:19:26.992Z,1015.48
2016-09-03T01:20:26.947Z,1015.48
2016-09-03T01:21:26.907Z,1015.47
2016-09-03T01:22:27.055Z,1015.49
2016-09-03T01:23:26.813Z,1015.43
2016-09-03T01:24:26.766Z,1015.42
2016-09-03T01:25:26.723Z,1015.45
2016-09-03T01:26:26.676Z,1015.49
2016-09-03T01:27:26.835Z,1015.52
2016-09-03T01:28:26.582Z,1015.54
2016-09-03T01:29:26.537Z,1015.49
2016-09-03T01:30:26.498Z,1015.52
2016-09-03T01:31:26.452Z,1015.53
2016-09-03T01:32:26.407Z,1015.51
2016-09-03T01:33:26.360Z,1015.53
2016-09-03T01:34:26.318Z,1015.53
2016-09-03T01:35:26.267Z,1015.51
2016-09-03T01:36:26.428Z,1015.56
2016-09-03T01:37:26.183Z,1015.55
2016-09-03T01:38:26.136Z,1015.58
2016-09-03T01:39:26.122Z,1015.57
2016-09-03T01:40:26.244Z,1015.54
2016-09-03T01:41:25.996Z,1015.54
2016-09-03T01:42:25.956Z,1015.53
2016-09-03T01:43:25.909Z,1015.55
2016-09-03T01:44:25.869Z,1015.56
2016-09-03T01:45:25.818Z,1015.6
2016-09-03T01:46:25.770Z,1015.61
2016-09-03T01:47:25.721Z,1015.6
2016-09-03T01:48:25.679Z,1015.64
2016-09-03T01:49:25.640Z,1015.62
2016-09-03T01:50:25.587Z,1015.62
2016-09-03T01:51:25.541Z,1015.57
2016-09-03T01:52:25.497Z,1015.57
2016-09-03T01:53:25.457Z,1015.54
2016-09-03T01:54:25.401Z,1015.52
2016-09-03T01:55:25.564Z,1015.55
2016-09-03T01:56:25.329Z,1015.56
2016-09-03T01:57:25.263Z,1015.57
2016-09-03T01:58:25.229Z,1015.56
2016-09-03T01:59:25.178Z,1015.54
2016-09-03T02:00:25.138Z,1015.5
2016-09-03T02:01:25.086Z,1015.54
2016-09-03T02:02:25.042Z,1015.53
2016-09-03T02:03:24.998Z,1015.56
2016-09-03T02:04:24.950Z,1015.51
2016-09-03T02:05:24.908Z,1015.48
2016-09-03T02:06:24.859Z,1015.43
2016-09-03T02:07:25.014Z,1015.43
2016-09-03T02:08:24.767Z,1015.42
2016-09-03T02:09:24.725Z,1015.43
2016-09-03T02:10:24.675Z,1015.43
2016-09-03T02:11:24.635Z,1015.38
2016-09-03T02:12:24.588Z,1015.36
2016-09-03T02:13:24.537Z,1015.37
2016-09-03T02:14:24.493Z,1015.37
2016-09-03T02:15:24.460Z,1015.39
2016-09-03T02:16:24.605Z,1015.44
2016-09-03T02:17:24.357Z,1015.43
2016-09-03T02:18:24.318Z,1015.41
2016-09-03T02:19:24.269Z,1015.4
2016-09-03T02:20:24.254Z,1015.38
2016-09-03T02:21:24.178Z,1015.42
2016-09-03T02:22:24.138Z,1015.34
2016-09-03T02:23:24.085Z,1015.32
2016-09-03T02:24:24.038Z,1015.29
2016-09-03T02:25:23.996Z,1015.32
2016-09-03T02:26:23.947Z,1015.31
2016-09-03T02:27:23.906Z,1015.34
2016-09-03T02:28:23.854Z,1015.32
2016-09-03T02:29:24.015Z,1015.33
2016-09-03T02:30:23.768Z,1015.35
2016-09-03T02:31:23.719Z,1015.36
2016-09-03T02:32:23.672Z,1015.34
2016-09-03T02:33:23.632Z,1015.34
2016-09-03T02:34:23.584Z,1015.3
2016-09-03T02:35:23.535Z,1015.28
2016-09-03T02:36:23.491Z,1015.3
2016-09-03T02:37:23.442Z,1015.32
2016-09-03T02:38:23.400Z,1015.35
2016-09-03T02:39:23.358Z,1015.37
2016-09-03T02:40:23.310Z,1015.39
2016-09-03T02:41:23.260Z,1015.38
2016-09-03T02:42:23.218Z,1015.41
2016-09-03T02:43:23.372Z,1015.41
2016-09-03T02:44:23.134Z,1015.4
2016-09-03T02:45:23.290Z,1015.39
2016-09-03T02:46:23.033Z,1015.38
2016-09-03T02:47:22.991Z,1015.38
2016-09-03T02:48:22.943Z,1015.39
2016-09-03T02:49:22.896Z,1015.45
2016-09-03T02:50:22.856Z,1015.45
2016-09-03T02:51:23.054Z,1015.46
2016-09-03T02:52:22.958Z,1015.47
2016-09-03T02:53:22.938Z,1015.45
2016-09-03T02:54:22.813Z,1015.44
2016-09-03T02:55:22.628Z,1015.45
2016-09-03T02:56:22.579Z,1015.42
2016-09-03T02:57:22.540Z,1015.45
2016-09-03T02:58:22.487Z,1015.42
2016-09-03T02:59:22.442Z,1015.38
2016-09-03T03:00:22.410Z,1015.32
2016-09-03T03:01:22.356Z,1015.28
2016-09-03T03:02:22.307Z,1015.27
2016-09-03T03:03:22.273Z,1015.26
2016-09-03T03:04:22.417Z,1015.25
2016-09-03T03:05:22.169Z,1015.21
2016-09-03T03:06:22.128Z,1015.23
2016-09-03T03:07:22.081Z,1015.21
2016-09-03T03:08:22.036Z,1015.22
2016-09-03T03:09:21.985Z,1015.23
2016-09-03T03:10:21.964Z,1015.19
2016-09-03T03:11:21.894Z,1015.19
2016-09-03T03:12:21.908Z,1015.24
2016-09-03T03:13:21.809Z,1015.21
2016-09-03T03:14:21.755Z,1015.22
2016-09-03T03:15:21.715Z,1015.23
2016-09-03T03:16:21.670Z,1015.26
2016-09-03T03:17:21.629Z,1015.23
2016-09-03T03:18:21.579Z,1015.21
2016-09-03T03:19:21.539Z,1015.22
2016-09-03T03:20:21.483Z,1015.24
2016-09-03T03:21:21.436Z,1015.19
2016-09-03T03:22:21.400Z,1015.14
2016-09-03T03:23:21.349Z,1015.11
2016-09-03T03:24:21.309Z,1015.12
2016-09-03T03:25:21.258Z,1015.07
2016-09-03T03:26:21.217Z,1015.13
2016-09-03T03:27:21.164Z,1015.12
2016-09-03T03:28:21.325Z,1015.12
2016-09-03T03:29:21.078Z,1015.13
2016-09-03T03:30:21.028Z,1015.11
2016-09-03T03:31:20.983Z,1015.14
2016-09-03T03:32:20.943Z,1015.06
2016-09-03T03:33:20.891Z,1015.09
2016-09-03T03:34:20.848Z,1015.09
2016-09-03T03:35:20.806Z,1015.12
2016-09-03T03:36:20.752Z,1015.11
2016-09-03T03:37:20.706Z,1015.13
2016-09-03T03:38:20.663Z,1015.12
2016-09-03T03:39:20.615Z,1015.13
2016-09-03T03:40:20.571Z,1015.13
2016-09-03T03:41:20.527Z,1015.14
2016-09-03T03:42:20.477Z,1015.18
2016-09-03T03:43:20.436Z,1015.19
2016-09-03T03:44:20.386Z,1015.16
2016-09-03T03:45:20.338Z,1015.18
2016-09-03T03:46:20.297Z,1015.16
2016-09-03T03:47:20.255Z,1015.15
2016-09-03T03:48:20.206Z,1015.12
2016-09-03T03:49:20.157Z,1015.13
2016-09-03T03:50:20.110Z,1015.11
2016-09-03T03:51:20.068Z,1015.11
2016-09-03T03:52:20.017Z,1015.08
2016-09-03T03:53:19.978Z,1015.09
2016-09-03T03:54:19.928Z,1015.11
2016-09-03T03:55:19.877Z,1015.13
2016-09-03T03:56:19.837Z,1015.11
2016-09-03T03:57:19.790Z,1015.16
2016-09-03T03:58:19.748Z,1015.11
2016-09-03T03:59:19.700Z,1015.08
2016-09-03T04:00:19.658Z,1015.12
2016-09-03T04:01:19.608Z,1015.11
2016-09-03T04:02:19.559Z,1015.15
2016-09-03T04:03:19.512Z,1015.17
2016-09-03T04:04:19.464Z,1015.18
2016-09-03T04:05:19.623Z,1015.18
2016-09-03T04:06:19.376Z,1015.19
2016-09-03T04:07:19.380Z,1015.2
2016-09-03T04:08:19.296Z,1015.17
2016-09-03T04:09:19.237Z,1015.17
2016-09-03T04:11:19.149Z,1015.17
2016-09-03T04:12:19.098Z,1015.18
2016-09-03T04:13:19.061Z,1015.14
2016-09-03T04:14:19.013Z,1015.12
2016-09-03T04:15:18.969Z,1015.18
2016-09-03T04:16:18.919Z,1015.16
2016-09-03T04:17:18.868Z,1015.18
2016-09-03T04:18:18.830Z,1015.19
2016-09-03T04:19:18.779Z,1015.16
2016-09-03T04:20:18.729Z,1015.18
2016-09-03T04:21:18.687Z,1015.16
2016-09-03T04:22:18.639Z,1015.18
2016-09-03T04:23:18.800Z,1015.19
2016-09-03T04:24:18.747Z,1015.21
2016-09-03T04:25:18.505Z,1015.2
2016-09-03T04:26:18.455Z,1015.28
2016-09-03T04:27:18.610Z,1015.24
2016-09-03T04:28:18.361Z,1015.3
2016-09-03T04:29:18.319Z,1015.29
2016-09-03T04:30:18.269Z,1015.29
2016-09-03T04:31:18.225Z,1015.3
2016-09-03T04:32:18.182Z,1015.32
2016-09-03T04:33:18.139Z,1015.31
2016-09-03T04:34:18.083Z,1015.34
2016-09-03T04:35:18.242Z,1015.36
2016-09-03T04:36:17.995Z,1015.37
2016-09-03T04:37:17.947Z,1015.37
2016-09-03T04:38:17.908Z,1015.39
2016-09-03T04:39:17.859Z,1015.41
2016-09-03T04:40:17.813Z,1015.42
2016-09-03T04:41:17.770Z,1015.41
2016-09-03T04:42:17.719Z,1015.42
2016-09-03T04:43:17.695Z,1015.46
2016-09-03T04:44:17.628Z,1015.44
2016-09-03T04:45:17.578Z,1015.5
2016-09-03T04:46:17.532Z,1015.5
2016-09-03T04:47:17.485Z,1015.5
2016-09-03T04:48:17.449Z,1015.52
2016-09-03T04:49:17.403Z,1015.5
2016-09-03T04:50:17.347Z,1015.5
2016-09-03T04:51:17.511Z,1015.51
2016-09-03T04:52:17.258Z,1015.5
2016-09-03T04:53:17.210Z,1015.5
2016-09-03T04:54:17.163Z,1015.58
2016-09-03T04:55:17.116Z,1015.54
2016-09-03T04:56:17.070Z,1015.54
2016-09-03T04:57:17.025Z,1015.52
2016-09-03T04:58:17.179Z,1015.51
2016-09-03T04:59:16.932Z,1015.54
2016-09-03T05:00:17.087Z,1015.49
2016-09-03T05:01:16.844Z,1015.47
2016-09-03T05:02:16.794Z,1015.52
2016-09-03T05:03:16.749Z,1015.5
2016-09-03T05:04:16.699Z,1015.49
2016-09-03T05:05:16.857Z,1015.46
2016-09-03T05:06:16.609Z,1015.46
2016-09-03T05:07:16.573Z,1015.49
2016-09-03T05:08:16.516Z,1015.44
2016-09-03T05:09:16.470Z,1015.5
2016-09-03T05:10:16.420Z,1015.51
2016-09-03T05:11:16.376Z,1015.45
2016-09-03T05:12:16.325Z,1015.47
2016-09-03T05:13:16.284Z,1015.44
2016-09-03T05:14:16.239Z,1015.48
2016-09-03T05:15:16.199Z,1015.4
2016-09-03T05:16:16.148Z,1015.42
2016-09-03T05:17:16.100Z,1015.44
2016-09-03T05:18:16.257Z,1015.47
2016-09-03T05:19:16.005Z,1015.45
2016-09-03T05:20:15.957Z,1015.46
2016-09-03T05:21:15.924Z,1015.47
2016-09-03T05:22:15.868Z,1015.47
2016-09-03T05:23:15.828Z,1015.52
2016-09-03T05:24:15.778Z,1015.53
2016-09-03T05:25:15.729Z,1015.52
2016-09-03T05:26:15.688Z,1015.52
2016-09-03T05:27:15.636Z,1015.53
2016-09-03T05:28:15.591Z,1015.53
2016-09-03T05:29:15.548Z,1015.54
2016-09-03T05:30:15.499Z,1015.59
2016-09-03T05:31:15.458Z,1015.55
2016-09-03T05:32:15.404Z,1015.56
2016-09-03T05:33:15.359Z,1015.52
2016-09-03T05:34:15.517Z,1015.53
2016-09-03T05:35:15.270Z,1015.56
2016-09-03T05:36:15.218Z,1015.56
2016-09-03T05:37:15.179Z,1015.57
2016-09-03T05:38:15.329Z,1015.58
2016-09-03T05:39:15.083Z,1015.53
2016-09-03T05:40:15.039Z,1015.57
2016-09-03T05:41:14.989Z,1015.55
2016-09-03T05:42:14.945Z,1015.59
2016-09-03T05:43:15.098Z,1015.58
2016-09-03T05:44:14.858Z,1015.53
2016-09-03T05:45:15.014Z,1015.53
2016-09-03T05:46:14.961Z,1015.48
2016-09-03T05:47:14.714Z,1015.5
2016-09-03T05:48:14.663Z,1015.53
2016-09-03T05:49:14.622Z,1015.54
2016-09-03T05:50:14.779Z,1015.59
2016-09-03T05:51:14.531Z,1015.6
2016-09-03T05:52:14.481Z,1015.64
2016-09-03T05:53:14.439Z,1015.63
2016-09-03T05:54:14.387Z,1015.64
2016-09-03T05:55:14.348Z,1015.61
2016-09-03T05:56:14.300Z,1015.59
2016-09-03T05:57:14.259Z,1015.59
2016-09-03T05:58:14.208Z,1015.6
2016-09-03T05:59:14.158Z,1015.58
2016-09-03T06:00:14.118Z,1015.62
2016-09-03T06:01:14.067Z,1015.59
2016-09-03T06:02:14.018Z,1015.64
2016-09-03T06:03:13.973Z,1015.62
2016-09-03T06:04:13.927Z,1015.64
2016-09-03T06:05:13.886Z,1015.66
2016-09-03T06:06:13.837Z,1015.69
2016-09-03T06:07:13.795Z,1015.68
2016-09-03T06:08:13.742Z,1015.77
2016-09-03T06:09:13.703Z,1015.73
2016-09-03T06:10:13.656Z,1015.72
2016-09-03T06:11:13.809Z,1015.73
2016-09-03T06:12:13.617Z,1015.69
2016-09-03T06:13:13.515Z,1015.73
2016-09-03T06:14:13.480Z,1015.72
2016-09-03T06:15:13.425Z,1015.74
2016-09-03T06:16:13.386Z,1015.74
2016-09-03T06:17:13.328Z,1015.75
2016-09-03T06:18:13.288Z,1015.72
2016-09-03T06:19:13.241Z,1015.78
2016-09-03T06:20:13.393Z,1015.75
2016-09-03T06:21:13.147Z,1015.75
2016-09-03T06:22:13.100Z,1015.75
2016-09-03T06:23:13.059Z,1015.71
2016-09-03T06:24:13.019Z,1015.75
2016-09-03T06:25:12.966Z,1015.72
2016-09-03T06:26:12.916Z,1015.75
2016-09-03T06:27:12.870Z,1015.69
2016-09-03T06:28:12.820Z,1015.73
2016-09-03T06:29:12.979Z,1015.77
2016-09-03T06:30:12.728Z,1015.71
2016-09-03T06:31:12.698Z,1015.72
2016-09-03T06:32:12.638Z,1015.72
2016-09-03T06:33:12.797Z,1015.71
2016-09-03T06:34:12.550Z,1015.72
2016-09-03T06:35:12.505Z,1015.72
2016-09-03T06:36:12.658Z,1015.72
2016-09-03T06:37:12.408Z,1015.68
2016-09-03T06:38:12.367Z,1015.69
2016-09-03T06:39:12.318Z,1015.7
2016-09-03T06:40:12.270Z,1015.7
2016-09-03T06:41:12.224Z,1015.71
2016-09-03T06:42:12.385Z,1015.69
2016-09-03T06:43:12.335Z,1015.71
2016-09-03T06:44:12.089Z,1015.66
2016-09-03T06:45:12.043Z,1015.68
2016-09-03T06:46:11.996Z,1015.69
2016-09-03T06:47:11.953Z,1015.73
2016-09-03T06:48:11.905Z,1015.73
2016-09-03T06:49:11.872Z,1015.69
2016-09-03T06:50:11.820Z,1015.76
2016-09-03T06:51:11.766Z,1015.72
2016-09-03T06:52:11.727Z,1015.78
2016-09-03T06:53:11.677Z,1015.76
2016-09-03T06:54:11.637Z,1015.79
2016-09-03T06:55:11.585Z,1015.78
2016-09-03T06:56:11.550Z,1015.79
2016-09-03T06:57:11.698Z,1015.81
2016-09-03T06:58:11.448Z,1015.8
2016-09-03T06:59:11.401Z,1015.76
2016-09-03T07:00:11.356Z,1015.75
2016-09-03T07:01:11.307Z,1015.75
2016-09-03T07:02:11.267Z,1015.75
2016-09-03T07:03:11.217Z,1015.8
2016-09-03T07:04:11.170Z,1015.82
2016-09-03T07:05:11.140Z,1015.8
2016-09-03T07:06:11.084Z,1015.79
2016-09-03T07:07:11.037Z,1015.77
2016-09-03T07:08:10.994Z,1015.73
2016-09-03T07:09:10.948Z,1015.77
2016-09-03T07:10:10.904Z,1015.77
2016-09-03T07:11:10.856Z,1015.82
2016-09-03T07:12:10.809Z,1015.84
2016-09-03T07:13:10.766Z,1015.78
2016-09-03T07:14:10.719Z,1015.83
2016-09-03T07:15:10.670Z,1015.84
2016-09-03T07:16:10.623Z,1015.87
2016-09-03T07:17:10.586Z,1015.84
2016-09-03T07:18:10.737Z,1015.88
2016-09-03T07:19:10.488Z,1015.89
2016-09-03T07:20:10.452Z,1015.91
2016-09-03T07:21:10.397Z,1015.89
2016-09-03T07:22:10.357Z,1015.93
2016-09-03T07:23:10.306Z,1015.95
2016-09-03T07:24:10.264Z,1015.92
2016-09-03T07:25:10.215Z,1015.92
2016-09-03T07:26:10.169Z,1015.92
2016-09-03T07:27:10.128Z,1015.92
2016-09-03T07:28:10.083Z,1015.94
2016-09-03T07:29:10.037Z,1015.92
2016-09-03T07:30:09.989Z,1015.95
2016-09-03T07:31:10.146Z,1015.98
2016-09-03T07:32:10.184Z,1016.01
2016-09-03T07:33:09.852Z,1015.98
2016-09-03T07:34:09.814Z,1016.03
2016-09-03T07:35:09.764Z,1016
2016-09-03T07:36:09.715Z,1016.02
2016-09-03T07:37:09.673Z,1016.06
2016-09-03T07:38:09.626Z,1016.01
2016-09-03T07:39:09.581Z,1016.08
2016-09-03T07:40:09.546Z,1016.09
2016-09-03T07:41:09.495Z,1016.08
2016-09-03T07:42:09.443Z,1016.07
2016-09-03T07:43:09.485Z,1016.07
2016-09-03T07:44:09.364Z,1016.05
2016-09-03T07:45:09.334Z,1015.99
2016-09-03T07:46:09.472Z,1015.98
2016-09-03T07:47:09.220Z,1015.97
2016-09-03T07:48:09.177Z,1015.96
2016-09-03T07:49:09.741Z,1015.93
2016-09-03T07:50:09.088Z,1015.94
2016-09-03T07:51:09.046Z,1015.95
2016-09-03T07:52:09.001Z,1015.96
2016-09-03T07:53:08.949Z,1015.98
2016-09-03T07:54:08.936Z,1015.95
2016-09-03T07:55:08.859Z,1015.94
2016-09-03T07:56:08.817Z,1015.94
2016-09-03T07:57:08.769Z,1015.94
2016-09-03T07:58:08.730Z,1015.95
2016-09-03T07:59:08.683Z,1015.98
2016-09-03T08:00:08.633Z,1016
2016-09-03T08:01:08.593Z,1015.99
2016-09-03T08:02:08.546Z,1015.99
2016-09-03T08:03:08.497Z,1015.96
2016-09-03T08:04:08.462Z,1015.98
2016-09-03T08:05:08.616Z,1015.96
2016-09-03T08:06:08.384Z,1015.96
2016-09-03T08:07:08.326Z,1015.98
2016-09-03T08:08:08.274Z,1015.98
2016-09-03T08:09:08.227Z,1015.94
2016-09-03T08:10:08.190Z,1015.97
2016-09-03T08:11:08.142Z,1015.94
2016-09-03T08:12:08.100Z,1015.94
2016-09-03T08:13:08.064Z,1015.99
2016-09-03T08:14:08.005Z,1015.98
2016-09-03T08:15:07.964Z,1016.01
2016-09-03T08:16:07.915Z,1016.05
2016-09-03T08:17:07.871Z,1016.01
2016-09-03T08:18:07.823Z,1016.05
2016-09-03T08:19:07.792Z,1016.08
2016-09-03T08:20:07.745Z,1016.06
2016-09-03T08:21:07.698Z,1016.09
2016-09-03T08:22:07.654Z,1016.04
2016-09-03T08:23:07.606Z,1016.04
2016-09-03T08:24:07.560Z,1016.04
2016-09-03T08:25:07.512Z,1016.06
2016-09-03T08:26:07.472Z,1016.08
2016-09-03T08:27:07.438Z,1016.13
2016-09-03T08:28:07.585Z,1016.13
2016-09-03T08:29:07.336Z,1016.14
2016-09-03T08:30:07.296Z,1016.18
2016-09-03T08:31:07.243Z,1016.2
2016-09-03T08:32:07.203Z,1016.19
2016-09-03T08:33:07.153Z,1016.17
2016-09-03T08:34:07.112Z,1016.18
2016-09-03T08:35:07.062Z,1016.19
2016-09-03T08:36:07.025Z,1016.18
2016-09-03T08:37:06.974Z,1016.23
2016-09-03T08:38:06.928Z,1016.22
2016-09-03T08:39:06.885Z,1016.2
2016-09-03T08:40:06.842Z,1016.2
2016-09-03T08:41:06.791Z,1016.19
2016-09-03T08:42:06.750Z,1016.14
2016-09-03T08:43:06.706Z,1016.14
2016-09-03T08:44:06.665Z,1016.14
2016-09-03T08:45:06.614Z,1016.1
2016-09-03T08:46:06.779Z,1016.11
2016-09-03T08:47:06.522Z,1016.08
2016-09-03T08:48:06.680Z,1016.14
2016-09-03T08:49:06.433Z,1016.14
2016-09-03T08:50:06.393Z,1016.12
2016-09-03T08:51:06.352Z,1016.14
2016-09-03T08:52:06.303Z,1016.11
2016-09-03T08:53:06.254Z,1016.13
2016-09-03T08:54:06.218Z,1016.1
2016-09-03T08:55:06.172Z,1016.11
2016-09-03T08:56:06.123Z,1016.1
2016-09-03T08:57:06.114Z,1016.06
2016-09-03T08:58:06.030Z,1016.06
2016-09-03T08:59:05.998Z,1016.03
2016-09-03T09:00:05.949Z,1016
2016-09-03T09:01:06.104Z,1016.01
2016-09-03T09:02:05.868Z,1016.02
2016-09-03T09:03:05.814Z,1015.97
2016-09-03T09:04:05.771Z,1016
2016-09-03T09:05:05.721Z,1016.08
2016-09-03T09:06:05.675Z,1016.02
2016-09-03T09:07:05.630Z,1016
2016-09-03T09:08:05.585Z,1016.02
2016-09-03T09:09:05.545Z,1016.01
2016-09-03T09:10:05.491Z,1016.01
2016-09-03T09:11:05.461Z,1015.98
2016-09-03T09:12:05.405Z,1015.95
2016-09-03T09:13:05.364Z,1015.92
2016-09-03T09:14:05.319Z,1015.94
2016-09-03T09:15:05.271Z,1015.93
2016-09-03T09:16:05.235Z,1015.91
2016-09-03T09:17:05.183Z,1015.88
2016-09-03T09:18:05.141Z,1015.89
2016-09-03T09:19:05.294Z,1015.87
2016-09-03T09:20:05.055Z,1015.89
2016-09-03T09:21:05.207Z,1015.93
2016-09-03T09:22:04.964Z,1015.9
2016-09-03T09:23:04.925Z,1015.9
2016-09-03T09:24:04.869Z,1015.89
2016-09-03T09:25:04.826Z,1015.92
2016-09-03T09:26:04.783Z,1015.91
2016-09-03T09:27:04.741Z,1015.94
2016-09-03T09:28:04.692Z,1015.93
2016-09-03T09:29:04.652Z,1015.88
2016-09-03T09:30:04.807Z,1015.88
2016-09-03T09:31:04.561Z,1015.9
2016-09-03T09:32:04.516Z,1015.85
2016-09-03T09:33:04.479Z,1015.81
2016-09-03T09:34:04.445Z,1015.81
2016-09-03T09:35:04.384Z,1015.8
2016-09-03T09:36:04.335Z,1015.82
2016-09-03T09:37:04.301Z,1015.83
2016-09-03T09:38:04.252Z,1015.82
2016-09-03T09:39:04.211Z,1015.8
2016-09-03T09:40:04.160Z,1015.8
2016-09-03T09:41:04.120Z,1015.78
2016-09-03T09:42:04.071Z,1015.78
2016-09-03T09:43:04.231Z,1015.75
2016-09-03T09:44:03.990Z,1015.72
2016-09-03T09:45:03.944Z,1015.73
2016-09-03T09:46:03.910Z,1015.76
2016-09-03T09:47:03.850Z,1015.66
2016-09-03T09:48:03.811Z,1015.66
2016-09-03T09:49:03.763Z,1015.72
2016-09-03T09:50:03.743Z,1015.67
2016-09-03T09:51:03.674Z,1015.71
2016-09-03T09:52:03.629Z,1015.7
2016-09-03T09:53:03.586Z,1015.72
2016-09-03T09:54:03.541Z,1015.73
2016-09-03T09:55:03.701Z,1015.72
2016-09-03T09:56:03.512Z,1015.73
2016-09-03T09:57:03.406Z,1015.74
2016-09-03T09:58:03.373Z,1015.69
2016-09-03T09:59:03.326Z,1015.71
2016-09-03T10:00:03.278Z,1015.68
2016-09-03T10:01:03.238Z,1015.67
2016-09-03T10:02:03.187Z,1015.65
2016-09-03T10:03:03.149Z,1015.6
2016-09-03T10:04:03.100Z,1015.66
2016-09-03T10:05:03.057Z,1015.66
2016-09-03T10:06:03.223Z,1015.62
2016-09-03T10:07:02.966Z,1015.64
2016-09-03T10:08:02.927Z,1015.62
2016-09-03T10:09:02.879Z,1015.62
2016-09-03T10:10:02.845Z,1015.64
2016-09-03T10:11:02.799Z,1015.63
2016-09-03T10:12:02.745Z,1015.61
2016-09-03T10:13:02.704Z,1015.64
2016-09-03T10:14:02.656Z,1015.56
2016-09-03T10:15:02.619Z,1015.59
2016-09-03T10:16:02.571Z,1015.51
2016-09-03T10:17:02.530Z,1015.51
2016-09-03T10:18:02.481Z,1015.46
2016-09-03T10:19:02.438Z,1015.46
2016-09-03T10:20:02.406Z,1015.4
2016-09-03T10:21:02.351Z,1015.43
2016-09-03T10:22:02.507Z,1015.32
2016-09-03T10:23:02.264Z,1015.36
2016-09-03T10:24:02.220Z,1015.37
2016-09-03T10:25:02.181Z,1015.38
2016-09-03T10:26:02.131Z,1015.36
2016-09-03T10:27:02.089Z,1015.39
2016-09-03T10:28:02.250Z,1015.34
2016-09-03T10:29:01.999Z,1015.32
2016-09-03T10:30:01.959Z,1015.27
2016-09-03T10:31:01.919Z,1015.27
2016-09-03T10:32:01.871Z,1015.26
2016-09-03T10:33:01.842Z,1015.25
2016-09-03T10:34:01.803Z,1015.23
2016-09-03T10:35:01.742Z,1015.21
2016-09-03T10:36:01.701Z,1015.23
2016-09-03T10:37:01.653Z,1015.23
2016-09-03T10:38:01.617Z,1015.16
2016-09-03T10:39:01.574Z,1015.16
2016-09-03T10:40:01.523Z,1015.14
2016-09-03T10:41:01.482Z,1015.18
2016-09-03T10:42:01.438Z,1015.12
2016-09-03T10:43:01.392Z,1015.12
2016-09-03T10:44:01.350Z,1015.12
2016-09-03T10:45:01.309Z,1015.05
2016-09-03T10:46:01.260Z,1015.08
2016-09-03T10:47:01.220Z,1015.07
2016-09-03T10:48:01.179Z,1015.07
2016-09-03T10:49:01.135Z,1015
2016-09-03T10:50:01.084Z,1015.02
2016-09-03T10:51:01.043Z,1015.02
2016-09-03T10:52:01.210Z,1014.99
2016-09-03T10:53:01.175Z,1015
2016-09-03T10:54:00.926Z,1014.97
2016-09-03T10:55:00.873Z,1014.88
2016-09-03T10:56:00.831Z,1014.87
2016-09-03T10:57:00.788Z,1014.92
2016-09-03T10:58:00.744Z,1014.93
2016-09-03T10:59:00.902Z,1014.93
2016-09-03T11:00:00.716Z,1014.88
2016-09-03T11:01:00.620Z,1014.86
2016-09-03T11:02:00.622Z,1014.84
2016-09-03T11:03:00.534Z,1014.84
2016-09-03T11:04:00.481Z,1014.83
2016-09-03T11:05:00.440Z,1014.84
2016-09-03T11:06:00.403Z,1014.83
2016-09-03T11:07:00.356Z,1014.79
2016-09-03T11:08:00.310Z,1014.77
2016-09-03T11:09:00.268Z,1014.76
2016-09-03T11:10:00.223Z,1014.77
2016-09-03T11:11:00.189Z,1014.71
2016-09-03T11:12:00.142Z,1014.7
2016-09-03T11:13:00.301Z,1014.68
2016-09-03T11:14:00.052Z,1014.65
2016-09-03T11:15:00.010Z,1014.7
2016-09-03T11:15:59.971Z,1014.71
2016-09-03T11:16:59.921Z,1014.73
2016-09-03T11:17:59.886Z,1014.65
2016-09-03T11:18:59.847Z,1014.66
2016-09-03T11:19:59.793Z,1014.69
2016-09-03T11:20:59.751Z,1014.68
2016-09-03T11:21:59.709Z,1014.67
2016-09-03T11:22:59.664Z,1014.66
2016-09-03T11:23:59.831Z,1014.7
2016-09-03T11:24:59.580Z,1014.75
2016-09-03T11:25:59.538Z,1014.73
2016-09-03T11:26:59.492Z,1014.73
2016-09-03T11:27:59.451Z,1014.74
2016-09-03T11:28:59.406Z,1014.67
2016-09-03T11:29:59.380Z,1014.7
2016-09-03T11:30:59.329Z,1014.7
2016-09-03T11:31:59.276Z,1014.71
2016-09-03T11:32:59.237Z,1014.65
2016-09-03T11:33:59.192Z,1014.62
2016-09-03T11:34:59.161Z,1014.65
2016-09-03T11:35:59.105Z,1014.66
2016-09-03T11:36:59.063Z,1014.67
2016-09-03T11:37:59.024Z,1014.61
2016-09-03T11:38:58.982Z,1014.68
2016-09-03T11:39:58.939Z,1014.65
2016-09-03T11:40:58.897Z,1014.62
2016-09-03T11:41:58.849Z,1014.62
2016-09-03T11:42:59.010Z,1014.65
2016-09-03T11:43:58.763Z,1014.63
2016-09-03T11:44:58.718Z,1014.58
2016-09-03T11:45:58.684Z,1014.57
2016-09-03T11:46:58.634Z,1014.55
2016-09-03T11:47:58.593Z,1014.53
2016-09-03T11:48:58.549Z,1014.51
2016-09-03T11:49:58.506Z,1014.57
2016-09-03T11:50:58.466Z,1014.55
2016-09-03T11:51:58.426Z,1014.58
2016-09-03T11:52:58.382Z,1014.58
2016-09-03T11:53:58.346Z,1014.55
2016-09-03T11:54:58.294Z,1014.57
2016-09-03T11:55:58.253Z,1014.55
2016-09-03T11:56:58.214Z,1014.52
2016-09-03T11:57:58.218Z,1014.55
2016-09-03T11:58:58.125Z,1014.49
2016-09-03T11:59:58.079Z,1014.43
2016-09-03T12:00:58.037Z,1014.45
2016-09-03T12:01:58.002Z,1014.44
2016-09-03T12:02:57.951Z,1014.43
2016-09-03T12:03:57.907Z,1014.41
2016-09-03T12:04:57.873Z,1014.38
2016-09-03T12:05:57.827Z,1014.39
2016-09-03T12:06:57.780Z,1014.39
2016-09-03T12:07:57.944Z,1014.35
2016-09-03T12:08:57.700Z,1014.38